x

Orange Beach - 44 Nm Se Of Mobile, Al (42012) Wave Buoy

8:50am - Mon 28th Jul 2014 All times are CDT. -5 hours from GMT.

  • Sig Wave height 3.0ft
  • Swell Direction
  • Peak Period 5s
  • Average Period 4s
  • Wind
    20mph, 22mph gusts
  • Sea Temp 83°f
  • Air Temp 83°f
  • Sea Pressure 1017.3mb
  • Orange Beach - 44 Nm Se Of Mobile, Al
  • Orange Beach - 44 Nm Se Of Mobile, Al

More Historic Weather Station data

Upgrade to MSW Pro to gain access to the past 30 days of data for over 8000 Wavebouys and Weather Stations around the globe.

Join Pro

Comparision Forecast

View Surf forecast
   
Mon 07/28 8:50am 3ft 5s 4s 20 22 mph 1017.3mb 83f 83f
7:50am 3ft 5s 4s 20 22 mph 1017.2mb 83f 83f
6:50am 3.5ft 5s 4s 20 22 mph 1017.1mb 83f 83f
5:50am 3.5ft 5s 4s 20 25 mph 1016.6mb 83f 83f
4:50am 3.5ft 5s 4s 20 22 mph 1016.1mb 83f 84f
3:50am 4ft 5s 4s 18 20 mph 1015.8mb 84f 84f
2:50am 4ft 5s 4s 20 22 mph 1015.6mb 84f 84f
1:50am 3.5ft 4s 4s 20 25 mph 1016mb 84f 84f
12:50am 3.5ft 4s 4s 18 22 mph 1016.7mb 84f 85f
Sun 07/27 11:50pm 3ft 4s 4s 18 20 mph 1017.1mb 84f 85f
10:50pm 2.5ft 4s 4s 16 18 mph 1017.2mb 84f 85f
8:50pm 2.5ft 4s 4s 18 20 mph 1016.5mb 84f 85f
7:50pm 2.5ft 4s 3s 18 22 mph 1016.2mb 84f 84f
6:50pm 2ft 3s 3s 18 20 mph 1016mb 84f 84f
5:50pm 1.6ft 4s 3s 16 20 mph 1016.6mb 84f 84f
4:50pm 1.6ft 3s 3s 16 18 mph 1016.8mb 85f 84f
3:50pm 1.6ft 4s 3s 16 20 mph 1017.1mb 85f 85f
2:50pm 1.3ft 4s 4s 11 16 mph 1017.7mb 85f 84f
1:50pm 1.6ft 4s 4s 11 13 mph 1018.3mb 85f 83f
12:50pm 1.6ft 4s 4s 11 13 mph 1019.1mb 84f 83f
11:50am 2ft 4s 4s 9 11 mph 1019.2mb 84f 83f
10:50am 2ft 4s 4s 11 13 mph 1019.2mb 84f 83f
9:50am 2.5ft 4s 4s 16 18 mph 1019.2mb 84f 83f
8:50am 2.5ft 4s 4s 16 18 mph 1018.8mb 83f 83f
7:50am 2.5ft 4s 4s 16 20 mph 1018.2mb 83f 83f
6:50am 2.5ft 4s 4s 16 18 mph 1017.5mb 83f 83f
5:50am 2.5ft 4s 4s 13 16 mph 1017.3mb 84f 83f
4:50am 2.5ft 4s 4s 13 18 mph 1017mb 84f 84f
3:50am 2ft 4s 3s 13 16 mph 1016.8mb 84f 83f
2:50am 2ft 4s 3s 16 18 mph 1016.9mb 84f 84f
1:50am 2ft 4s 3s 16 18 mph 1016.7mb 84f 84f
12:50am 1.6ft 4s 3s 13 16 mph 1017.2mb 84f 84f
Sat 07/26 11:50pm 2ft 4s 3s 11 13 mph 1017.8mb 84f 84f
10:50pm 2ft 4s 3s 13
mph
1018.2mb 84f 84f
9:50pm 2ft 4s 3s 13 16 mph 1017.8mb 84f 84f
8:50pm 2ft 4s 3s 13 16 mph 1017mb 85f 84f
7:50pm 2ft 4s 3s 16 18 mph 1016.6mb 84f 84f
6:50pm 1.6ft 4s 3s 16 18 mph 1016.4mb 84f 84f
5:50pm 1.6ft 4s 3s 16 20 mph 1016.3mb 84f 84f
4:50pm 1.6ft 3s 3s 16 18 mph 1016.9mb 85f 84f
3:50pm 1.6ft 4s 3s 13 18 mph 1017.1mb 85f 84f
2:50pm 1.6ft 4s 3s 13 16 mph 1017.7mb 85f 83f
1:50pm 1.6ft 4s 3s 11 13 mph 1018mb 85f 83f
12:50pm 1.6ft 4s 4s 11 13 mph 1018.4mb 84f 83f
11:50am 1.6ft 4s 4s 11 13 mph 1018.8mb 84f 83f
10:50am 2ft 4s 4s 11 13 mph 1019mb 84f 83f
9:50am 2ft 4s 4s 11 13 mph 1018.9mb 84f 83f
8:50am 2ft 4s 4s 13 16 mph 1018.3mb 84f 83f
7:50am 2.5ft 4s 4s 13 16 mph 1017.8mb 84f 83f
6:50am 2.5ft 4s 4s 13 16 mph 1017.2mb 84f 83f
5:50am 2.5ft 4s 4s 16 18 mph 1016.5mb 84f 83f
4:50am 2.5ft 4s 4s 18 20 mph 1016mb 84f 83f
3:50am 2ft 4s 4s 16 20 mph 1015.8mb 84f 83f
1:50am 2ft 4s 3s 16 18 mph 1015.9mb 84f 83f
12:50am 1.6ft 4s 3s 18 20 mph 1016.5mb 84f 84f
Fri 07/25 11:50pm 1.6ft 4s 3s 13 16 mph 1016.8mb 84f 84f
10:50pm 2ft 4s 3s 11 13 mph 1016.6mb 84f 84f
9:50pm 2ft 4s 3s 11 13 mph 1016.9mb 84f 84f
8:50pm 2ft 4s 4s 13 16 mph 1016.2mb 84f 84f
7:50pm 2.5ft 5s 4s 16 18 mph 1015.9mb 84f 84f
6:50pm 2ft 4s 4s 16 18 mph 1015.3mb 84f 83f
4:50pm 2.5ft 4s 4s 16 18 mph 1015.4mb 84f 83f
3:50pm 1.6ft 4s 4s 16 18 mph 1015mb 84f 83f
2:50pm 2ft 5s 4s 13 16 mph 1015.6mb 84f 83f
1:50pm 2ft 5s 4s 11 13 mph 1016.6mb 84f 83f
12:50pm 1.6ft 5s 4s 9 11 mph 1016.7mb 84f 83f
11:50am 1.6ft 5s 4s 7 9 mph 1017.3mb 84f 83f
10:50am 2ft 4s 4s 9 11 mph 1017.3mb 83f 82f
9:50am 2ft 4s 4s 7 9 mph 1017.2mb 83f 82f
8:50am 2ft 4s 4s 9 11 mph 1016.8mb 83f 82f
7:50am 2ft 4s 4s 9
mph
1016.3mb 83f 82f
6:50am 2ft 4s 4s 11 13 mph 1016.2mb 83f 80f
5:50am 2.5ft 4s 4s 16 18 mph 1015.3mb 83f 80f
4:50am 2ft 4s 3s 20 27 mph 1015.1mb 83f 81f
3:50am 1.6ft 3s 3s 11 13 mph 1015.1mb 83f 83f
2:50am 1.6ft 3s 3s 20 25 mph 1014.9mb 83f 82f
1:50am 1.6ft 3s 3s 16 22 mph 1015.4mb 83f 79f
12:50am 1.3ft 3s 3s 11 13 mph 1015.5mb 84f 83f
Thu 07/24 11:50pm 1.3ft 3s 3s 13 16 mph 1015.8mb 84f 82f
10:50pm 1.3ft 3s 3s 11 13 mph 1015.8mb 84f 82f
8:50pm 1ft 4s 4s 11 13 mph 1015.2mb 84f 83f
7:50pm 1ft 4s 4s 9 11 mph 1014.7mb 84f 83f
6:50pm 1ft 4s 4s 7
mph
1014.3mb 84f 83f
5:50pm 1ft 4s 4s 7 9 mph 1014.3mb 85f 83f
4:50pm 1.3ft 3s 3s 9
mph
1014.8mb 85f 83f
3:50pm 1ft 3s 3s 9
mph
1015.3mb 84f 83f
2:50pm 1ft 3s 4s 7 11 mph 1015.7mb 84f 83f